Time;durP1;ratioP1;P1;durP2;ratioP2;P2;SDS_P1;SDS_P2;PMS_P1;PMS_P2;Temp;Humidity;BMP_temperature;BMP_pressure;BME280_temperature;BME280_humidity;BME280_pressure;Samples;Min_cycle;Max_cycle;Signal;HPM_P1;HPM_P2
2023/11/05 00:01:36;0.00;0.00;0.62;0.00;0.00;0.62;3.10;1.93;;;22.80;28.20;;;;;;2254459;61;20390;-62
2023/11/05 00:04:21;0.00;0.00;0.62;0.00;0.00;0.62;2.00;1.30;;;22.80;28.20;;;;;;2254291;61;20398;-62
2023/11/05 00:07:06;0.00;0.00;0.62;0.00;0.00;0.62;2.63;1.73;;;22.80;28.20;;;;;;2254359;61;20414;-62
2023/11/05 00:09:52;0.00;0.00;0.62;0.00;0.00;0.62;2.70;1.70;;;22.80;28.20;;;;;;2254125;61;20501;-61
2023/11/05 00:12:37;0.00;0.00;0.62;0.00;0.00;0.62;1.97;1.47;;;22.80;28.20;;;;;;2254735;61;20378;-62
2023/11/05 00:15:21;0.00;0.00;0.62;0.00;0.00;0.62;2.40;1.60;;;22.80;28.20;;;;;;2254544;61;20402;-61
2023/11/05 00:18:06;0.00;0.00;0.62;0.00;0.00;0.62;2.53;1.50;;;22.80;28.30;;;;;;2248306;61;20467;-61
2023/11/05 00:20:50;0.00;0.00;0.62;0.00;0.00;0.62;2.37;1.30;;;22.80;28.30;;;;;;2254413;61;20427;-60
2023/11/05 00:23:35;0.00;0.00;0.62;0.00;0.00;0.62;2.60;1.60;;;22.80;28.30;;;;;;2254621;61;20366;-62
2023/11/05 00:26:21;0.00;0.00;0.62;0.00;0.00;0.62;2.00;1.47;;;22.80;28.30;;;;;;2251427;61;20374;-61
2023/11/05 00:29:10;0.00;0.00;0.62;0.00;0.00;0.62;2.13;1.50;;;22.80;28.30;;;;;;2251374;61;20370;-61
2023/11/05 00:31:55;0.00;0.00;0.62;0.00;0.00;0.62;2.20;1.40;;;22.80;28.30;;;;;;2254579;61;20362;-61
2023/11/05 00:34:39;0.00;0.00;0.62;0.00;0.00;0.62;2.10;1.20;;;22.80;28.40;;;;;;2251396;61;20382;-62
2023/11/05 00:37:24;0.00;0.00;0.62;0.00;0.00;0.62;3.83;1.67;;;22.80;28.30;;;;;;2251611;61;20451;-61
2023/11/05 00:40:09;0.00;0.00;0.62;0.00;0.00;0.62;2.47;1.53;;;22.80;28.30;;;;;;2254051;61;20437;-61
2023/11/05 00:42:57;0.00;0.00;0.62;0.00;0.00;0.62;2.20;1.40;;;22.80;28.40;;;;;;2254719;61;20912;-61
2023/11/05 00:45:41;0.00;0.00;0.62;0.00;0.00;0.62;2.40;1.57;;;22.80;28.40;;;;;;2254666;61;20517;-61
2023/11/05 00:48:26;0.00;0.00;0.62;0.00;0.00;0.62;2.80;1.80;;;22.80;28.30;;;;;;2250762;61;20455;-61
2023/11/05 00:51:10;0.00;0.00;0.62;0.00;0.00;0.62;1.90;1.40;;;22.80;28.40;;;;;;2254709;61;20407;-60
2023/11/05 00:53:55;0.00;0.00;0.62;0.00;0.00;0.62;2.17;1.30;;;22.80;28.40;;;;;;2254072;61;20403;-62
2023/11/05 00:56:39;0.00;0.00;0.62;0.00;0.00;0.62;2.20;1.30;;;22.80;28.40;;;;;;2254514;61;20402;-61
2023/11/05 00:59:25;0.00;0.00;0.62;0.00;0.00;0.62;2.13;1.53;;;22.80;28.40;;;;;;2251293;61;20378;-62
2023/11/05 01:02:10;0.00;0.00;0.62;0.00;0.00;0.62;2.00;1.50;;;22.80;28.40;;;;;;2254447;61;20602;-61
2023/11/05 01:04:55;0.00;0.00;0.62;0.00;0.00;0.62;2.43;1.30;;;22.80;28.40;;;;;;2251402;61;20446;-62
2023/11/05 01:07:39;0.00;0.00;0.62;0.00;0.00;0.62;2.10;1.30;;;22.70;28.30;;;;;;2254404;61;20899;-61
2023/11/05 01:10:26;0.00;0.00;0.62;0.00;0.00;0.62;1.73;1.20;;;22.70;28.30;;;;;;2254147;61;20401;-61
2023/11/05 01:13:10;0.00;0.00;0.62;0.00;0.00;0.62;2.10;1.40;;;22.80;28.50;;;;;;2254332;61;20824;-61
2023/11/05 01:15:56;0.00;0.00;0.62;0.00;0.00;0.62;2.00;1.20;;;22.70;28.40;;;;;;2254134;61;20379;-60
2023/11/05 01:18:41;0.00;0.00;0.62;0.00;0.00;0.62;2.57;1.70;;;22.80;28.50;;;;;;2253815;61;20370;-61
2023/11/05 01:21:26;0.00;0.00;0.62;0.00;0.00;0.62;1.80;1.27;;;22.70;28.40;;;;;;2254615;61;20430;-62
2023/11/05 01:24:10;0.00;0.00;0.62;0.00;0.00;0.62;2.50;1.50;;;22.70;28.40;;;;;;2254043;61;20382;-61
2023/11/05 01:26:55;0.00;0.00;0.62;0.00;0.00;0.62;2.67;1.40;;;22.70;28.40;;;;;;2254383;61;20363;-61
2023/11/05 01:29:40;0.00;0.00;0.62;0.00;0.00;0.62;2.60;1.00;;;22.70;28.90;;;;;;2251001;61;20963;-62
2023/11/05 01:32:26;0.00;0.00;0.62;0.00;0.00;0.62;1.83;1.33;;;22.70;28.40;;;;;;2251410;61;20363;-62
2023/11/05 01:35:11;0.00;0.00;0.62;0.00;0.00;0.62;2.33;1.33;;;22.70;28.50;;;;;;2254506;61;20542;-60
2023/11/05 01:37:56;0.00;0.00;0.62;0.00;0.00;0.62;1.93;1.27;;;22.70;28.40;;;;;;2253883;61;20443;-60
2023/11/05 01:40:40;0.00;0.00;0.62;0.00;0.00;0.62;2.23;1.13;;;22.70;28.50;;;;;;2251036;61;20441;-62
2023/11/05 01:43:25;0.00;0.00;0.62;0.00;0.00;0.62;2.10;1.43;;;22.70;28.40;;;;;;2254586;61;20421;-61
2023/11/05 01:46:10;0.00;0.00;0.62;0.00;0.00;0.62;2.20;1.00;;;22.70;28.50;;;;;;2254051;61;20418;-62
2023/11/05 01:48:58;0.00;0.00;0.62;0.00;0.00;0.62;2.73;1.10;;;22.70;28.50;;;;;;2253620;61;20446;-65
2023/11/05 01:51:42;0.00;0.00;0.62;0.00;0.00;0.62;2.10;1.30;;;22.70;28.50;;;;;;2254406;61;20363;-62
2023/11/05 01:54:28;0.00;0.00;0.62;0.00;0.00;0.62;1.97;1.30;;;22.70;28.50;;;;;;2251124;61;20416;-62
2023/11/05 01:57:12;0.00;0.00;0.62;0.00;0.00;0.62;2.67;1.00;;;22.70;28.50;;;;;;2254438;61;20406;-61
2023/11/05 01:59:57;0.00;0.00;0.62;0.00;0.00;0.62;2.33;1.30;;;22.70;28.50;;;;;;2253464;61;20386;-62
2023/11/05 02:02:42;0.00;0.00;0.62;0.00;0.00;0.62;2.10;1.20;;;22.70;28.50;;;;;;2251373;61;20409;-61
2023/11/05 02:05:28;0.00;0.00;0.62;0.00;0.00;0.62;1.97;1.43;;;22.70;28.50;;;;;;2248498;61;20390;-62
2023/11/05 02:08:13;0.00;0.00;0.62;0.00;0.00;0.62;1.60;1.17;;;22.70;28.50;;;;;;2250417;61;20383;-60
2023/11/05 02:10:58;0.00;0.00;0.62;0.00;0.00;0.62;2.47;1.20;;;22.70;28.50;;;;;;2251304;61;20441;-62
2023/11/05 02:13:44;0.00;0.00;0.62;0.00;0.00;0.62;2.13;1.13;;;22.70;28.50;;;;;;2254552;61;20461;-62
2023/11/05 02:16:31;0.00;0.00;0.62;0.00;0.00;0.62;1.73;1.20;;;22.70;28.50;;;;;;2251906;61;20793;-61
2023/11/05 02:19:16;0.00;0.00;0.62;0.00;0.00;0.62;3.10;1.30;;;22.70;28.50;;;;;;2243838;61;20399;-60
2023/11/05 02:22:11;0.00;0.00;0.62;0.00;0.00;0.62;1.77;1.00;;;22.70;28.50;;;;;;2250314;61;20439;-61
2023/11/05 02:25:18;0.00;0.00;0.62;0.00;0.00;0.62;1.80;1.10;;;22.70;28.50;;;;;;2250295;61;20395;-61
2023/11/05 02:28:03;0.00;0.00;0.62;0.00;0.00;0.62;1.50;1.00;;;22.70;28.50;;;;;;2253977;61;20363;-61
2023/11/05 02:30:49;0.00;0.00;0.62;0.00;0.00;0.62;1.70;1.00;;;22.70;28.50;;;;;;2248029;61;20728;-62
2023/11/05 02:33:41;0.00;0.00;0.62;0.00;0.00;0.62;1.70;1.00;;;22.70;28.50;;;;;;2251299;61;20371;-60
2023/11/05 02:36:26;0.00;0.00;0.62;0.00;0.00;0.62;1.90;1.07;;;22.70;28.50;;;;;;2250814;61;20359;-59
2023/11/05 02:39:11;0.00;0.00;0.62;0.00;0.00;0.62;1.60;0.90;;;22.70;28.50;;;;;;2251884;61;20370;-57
2023/11/05 02:41:58;0.00;0.00;0.62;0.00;0.00;0.62;2.37;1.03;;;22.70;28.50;;;;;;2252459;61;20449;-59
2023/11/05 02:44:43;0.00;0.00;0.62;0.00;0.00;0.62;2.00;1.27;;;22.70;28.50;;;;;;2251865;61;20912;-60
2023/11/05 02:47:28;0.00;0.00;0.62;0.00;0.00;0.62;1.80;0.90;;;22.70;28.50;;;;;;2252444;61;20375;-60
2023/11/05 02:50:14;0.00;0.00;0.62;0.00;0.00;0.62;2.00;1.23;;;22.70;28.50;;;;;;2252354;61;20770;-59
2023/11/05 02:52:58;0.00;0.00;0.62;0.00;0.00;0.62;1.70;1.00;;;22.70;28.50;;;;;;2252164;61;20382;-57
2023/11/05 02:55:43;0.00;0.00;0.62;0.00;0.00;0.62;1.60;1.00;;;22.70;28.50;;;;;;2252253;61;20907;-58
2023/11/05 02:58:29;0.00;0.00;0.62;0.00;0.00;0.62;1.90;1.23;;;22.70;28.50;;;;;;2251869;61;20907;-59
2023/11/05 03:01:22;0.00;0.00;0.62;0.00;0.00;0.62;2.47;1.10;;;22.70;28.50;;;;;;2252207;61;20446;-60
2023/11/05 03:04:06;0.00;0.00;0.62;0.00;0.00;0.62;1.57;1.00;;;22.70;28.50;;;;;;2249040;61;20445;-60
2023/11/05 03:06:51;0.00;0.00;0.62;0.00;0.00;0.62;1.60;0.90;;;22.70;28.50;;;;;;2248923;61;20366;-60
2023/11/05 03:09:36;0.00;0.00;0.62;0.00;0.00;0.62;1.83;0.90;;;22.70;28.50;;;;;;2251931;61;20414;-59
2023/11/05 03:12:21;0.00;0.00;0.62;0.00;0.00;0.62;1.53;0.90;;;22.70;28.50;;;;;;2249192;61;20872;-57
2023/11/05 03:15:08;0.00;0.00;0.62;0.00;0.00;0.62;1.70;0.93;;;22.70;28.50;;;;;;2252164;61;20397;-60
2023/11/05 03:17:54;0.00;0.00;0.62;0.00;0.00;0.62;1.87;0.80;;;22.70;28.50;;;;;;2246078;61;20379;-61
2023/11/05 03:20:38;0.00;0.00;0.62;0.00;0.00;0.62;1.60;0.80;;;22.70;28.50;;;;;;2252905;61;20449;-59
2023/11/05 03:23:23;0.00;0.00;0.62;0.00;0.00;0.62;2.03;1.10;;;22.70;28.50;;;;;;2253034;61;20469;-58
2023/11/05 03:26:07;0.00;0.00;0.62;0.00;0.00;0.62;1.73;1.00;;;22.70;28.50;;;;;;2253211;61;20386;-58
2023/11/05 03:28:52;0.00;0.00;0.62;0.00;0.00;0.62;2.67;1.20;;;22.70;28.50;;;;;;2252675;61;20398;-59
2023/11/05 03:31:38;0.00;0.00;0.62;0.00;0.00;0.62;1.60;0.90;;;22.70;28.50;;;;;;2253114;61;20888;-57
2023/11/05 03:34:24;0.00;0.00;0.62;0.00;0.00;0.62;1.50;0.87;;;22.70;28.50;;;;;;2253118;61;20522;-59
2023/11/05 03:37:08;0.00;0.00;0.62;0.00;0.00;0.62;1.50;1.00;;;22.70;28.50;;;;;;2249787;61;20421;-57
2023/11/05 03:39:53;0.00;0.00;0.62;0.00;0.00;0.62;1.90;1.03;;;22.70;28.50;;;;;;2252793;61;20363;-57
2023/11/05 03:42:38;0.00;0.00;0.62;0.00;0.00;0.62;1.63;1.00;;;22.70;28.50;;;;;;2252937;61;20366;-54
2023/11/05 03:45:22;0.00;0.00;0.62;0.00;0.00;0.62;1.83;0.87;;;22.70;28.50;;;;;;2253266;61;20394;-57
2023/11/05 03:48:08;0.00;0.00;0.62;0.00;0.00;0.62;1.60;1.00;;;22.70;28.50;;;;;;2252646;61;20487;-55
2023/11/05 03:50:53;0.00;0.00;0.62;0.00;0.00;0.62;1.80;1.10;;;22.70;28.50;;;;;;2478900;53;20367;-60
2023/11/05 03:53:38;0.00;0.00;0.62;0.00;0.00;0.62;2.03;1.10;;;22.70;28.50;;;;;;2248970;61;20419;-59
2023/11/05 03:56:22;0.00;0.00;0.62;0.00;0.00;0.62;1.70;0.80;;;22.70;28.50;;;;;;2248497;61;20483;-56
2023/11/05 03:59:07;0.00;0.00;0.62;0.00;0.00;0.62;1.50;0.90;;;22.70;28.50;;;;;;2248425;61;20963;-60
2023/11/05 04:01:52;0.00;0.00;0.62;0.00;0.00;0.62;1.80;1.00;;;22.70;29.00;;;;;;2245679;61;20399;-59
2023/11/05 04:04:38;0.00;0.00;0.62;0.00;0.00;0.62;1.60;0.90;;;22.70;28.50;;;;;;2248889;61;20422;-60
2023/11/05 04:07:22;0.00;0.00;0.62;0.00;0.00;0.62;1.60;0.90;;;22.70;28.50;;;;;;2245665;61;20825;-58
2023/11/05 04:10:08;0.00;0.00;0.62;0.00;0.00;0.62;1.67;0.80;;;22.70;28.50;;;;;;2248579;61;20368;-58
2023/11/05 04:12:52;0.00;0.00;0.62;0.00;0.00;0.62;2.23;1.00;;;22.70;28.50;;;;;;2248766;61;20507;-57
2023/11/05 04:15:38;0.00;0.00;0.62;0.00;0.00;0.62;1.90;1.00;;;22.60;28.40;;;;;;2271427;40;20402;-58
2023/11/05 04:18:23;0.00;0.00;0.62;0.00;0.00;0.62;1.60;1.10;;;22.70;28.50;;;;;;2260061;61;20477;-59
2023/11/05 04:21:09;0.00;0.00;0.62;0.00;0.00;0.62;2.00;1.00;;;22.70;28.50;;;;;;2260716;61;20913;-59
2023/11/05 04:23:53;0.00;0.00;0.62;0.00;0.00;0.62;1.60;0.97;;;22.70;28.50;;;;;;2260420;61;20400;-60
2023/11/05 04:26:38;0.00;0.00;0.62;0.00;0.00;0.62;1.80;0.80;;;22.60;28.40;;;;;;2260999;61;20419;-58
2023/11/05 04:29:22;0.00;0.00;0.62;0.00;0.00;0.62;2.00;0.93;;;22.60;28.40;;;;;;2260430;61;20364;-59
2023/11/05 04:32:07;0.00;0.00;0.62;0.00;0.00;0.62;2.10;0.97;;;22.70;28.50;;;;;;2260408;61;20357;-57
2023/11/05 04:34:52;0.00;0.00;0.62;0.00;0.00;0.62;1.80;0.90;;;22.70;28.50;;;;;;2257719;61;20384;-60
2023/11/05 04:37:38;0.00;0.00;0.62;0.00;0.00;0.62;1.70;0.90;;;22.60;28.40;;;;;;2260664;61;20395;-58
2023/11/05 04:40:22;0.00;0.00;0.62;0.00;0.00;0.62;1.70;1.07;;;22.60;28.40;;;;;;2257929;61;20442;-61
2023/11/05 04:43:07;0.00;0.00;0.62;0.00;0.00;0.62;1.50;0.77;;;22.60;28.40;;;;;;2260686;61;20364;-60
2023/11/05 04:45:52;0.00;0.00;0.62;0.00;0.00;0.62;1.50;1.00;;;22.60;28.40;;;;;;2260982;61;20369;-59
2023/11/05 04:48:37;0.00;0.00;0.62;0.00;0.00;0.62;1.70;0.80;;;22.60;28.40;;;;;;2259959;61;20407;-57
2023/11/05 04:51:21;0.00;0.00;0.62;0.00;0.00;0.62;1.60;1.00;;;22.60;28.40;;;;;;2260821;61;20786;-57
2023/11/05 04:54:07;0.00;0.00;0.62;0.00;0.00;0.62;1.50;0.80;;;22.60;28.40;;;;;;2298537;40;21277;-58
2023/11/05 04:56:52;0.00;0.00;0.62;0.00;0.00;0.62;1.50;0.80;;;22.60;28.40;;;;;;2262879;61;20388;-59
2023/11/05 04:59:39;0.00;0.00;0.62;0.00;0.00;0.62;1.60;0.80;;;22.60;28.40;;;;;;2260366;61;20917;-57
2023/11/05 05:02:24;0.00;0.00;0.62;0.00;0.00;0.62;1.47;0.87;;;22.60;28.40;;;;;;2260809;61;20489;-56
2023/11/05 05:05:09;0.00;0.00;0.62;0.00;0.00;0.62;1.87;0.90;;;22.60;28.40;;;;;;2258823;61;20377;-58
2023/11/05 05:07:53;0.00;0.00;0.62;0.00;0.00;0.62;1.60;0.80;;;22.60;28.40;;;;;;2256613;61;20435;-59
2023/11/05 05:10:39;0.00;0.00;0.62;0.00;0.00;0.62;2.83;1.00;;;22.60;28.40;;;;;;2256687;61;20377;-61
2023/11/05 05:13:24;0.00;0.00;0.62;0.00;0.00;0.62;1.30;0.70;;;22.60;28.40;;;;;;2256678;61;20903;-58
2023/11/05 05:16:12;0.00;0.00;0.62;0.00;0.00;0.62;1.63;0.90;;;22.60;28.40;;;;;;2256813;61;20362;-57
2023/11/05 05:18:56;0.00;0.00;0.62;0.00;0.00;0.62;1.60;0.90;;;22.60;28.40;;;;;;2256491;61;20370;-59
2023/11/05 05:21:42;0.00;0.00;0.62;0.00;0.00;0.62;1.53;0.80;;;22.60;28.40;;;;;;2256565;61;20425;-58
2023/11/05 05:24:28;0.00;0.00;0.62;0.00;0.00;0.62;1.97;0.90;;;22.60;28.40;;;;;;2256982;61;20592;-59
2023/11/05 05:27:14;0.00;0.00;0.62;0.00;0.00;0.62;1.40;0.80;;;22.60;28.40;;;;;;2256485;61;20370;-57
2023/11/05 05:29:59;0.00;0.00;0.62;0.00;0.00;0.62;2.37;0.90;;;22.60;28.40;;;;;;2256392;61;20526;-60
2023/11/05 05:32:44;0.00;0.00;0.62;0.00;0.00;0.62;2.00;0.80;;;22.60;28.40;;;;;;2256765;61;20389;-57
2023/11/05 05:35:28;0.00;0.00;0.62;0.00;0.00;0.62;1.60;0.90;;;22.60;28.40;;;;;;2256623;61;20385;-57
2023/11/05 05:38:13;0.00;0.00;0.62;0.00;0.00;0.62;1.40;0.70;;;22.60;28.40;;;;;;2258491;61;20413;-58
2023/11/05 05:40:57;0.00;0.00;0.62;0.00;0.00;0.62;1.40;0.80;;;22.60;28.40;;;;;;2256925;61;20397;-60
2023/11/05 05:43:43;0.00;0.00;0.62;0.00;0.00;0.62;2.03;0.90;;;22.60;28.90;;;;;;2256371;61;20357;-59
2023/11/05 05:46:28;0.00;0.00;0.62;0.00;0.00;0.62;1.40;0.80;;;22.60;28.40;;;;;;2259192;61;20369;-59
2023/11/05 05:49:12;0.00;0.00;0.62;0.00;0.00;0.62;1.90;0.80;;;22.60;28.40;;;;;;2256229;61;20361;-58
2023/11/05 05:51:58;0.00;0.00;0.62;0.00;0.00;0.62;1.70;0.80;;;22.60;28.40;;;;;;2256773;61;20416;-59
2023/11/05 05:54:43;0.00;0.00;0.62;0.00;0.00;0.62;1.37;0.73;;;22.60;28.40;;;;;;2256745;61;20558;-57
2023/11/05 05:57:28;0.00;0.00;0.62;0.00;0.00;0.62;1.37;0.73;;;22.60;28.40;;;;;;2256558;61;20897;-57
2023/11/05 06:00:15;0.00;0.00;0.62;0.00;0.00;0.62;1.50;0.80;;;22.60;28.40;;;;;;2256130;61;20358;-60
2023/11/05 06:03:00;0.00;0.00;0.62;0.00;0.00;0.62;1.60;0.90;;;22.60;28.40;;;;;;2256720;61;20569;-56
2023/11/05 06:05:44;0.00;0.00;0.62;0.00;0.00;0.62;1.60;0.90;;;22.60;28.40;;;;;;2256652;61;20489;-59
2023/11/05 06:08:29;0.00;0.00;0.62;0.00;0.00;0.62;1.67;0.80;;;22.60;28.40;;;;;;2256411;61;20366;-59
2023/11/05 06:11:14;0.00;0.00;0.62;0.00;0.00;0.62;1.67;0.80;;;22.60;28.40;;;;;;2256533;61;20370;-60
2023/11/05 06:13:59;0.00;0.00;0.62;0.00;0.00;0.62;3.00;0.80;;;22.60;28.40;;;;;;2256507;61;20432;-60
2023/11/05 06:16:45;0.00;0.00;0.62;0.00;0.00;0.62;1.70;0.97;;;22.60;28.40;;;;;;2256230;61;20358;-59
2023/11/05 06:19:29;0.00;0.00;0.62;0.00;0.00;0.62;1.70;0.90;;;22.60;28.40;;;;;;2255985;61;20365;-59
2023/11/05 06:22:14;0.00;0.00;0.62;0.00;0.00;0.62;2.00;0.80;;;22.60;28.40;;;;;;2256311;61;20428;-61
2023/11/05 06:25:00;0.00;0.00;0.62;0.00;0.00;0.62;2.87;0.90;;;22.60;28.40;;;;;;2256415;61;20389;-60
2023/11/05 06:27:45;0.00;0.00;0.62;0.00;0.00;0.62;1.60;0.80;;;22.60;28.40;;;;;;2256324;61;20393;-61
2023/11/05 06:30:30;0.00;0.00;0.62;0.00;0.00;0.62;1.47;0.73;;;22.60;28.40;;;;;;2256338;61;20366;-60
2023/11/05 06:33:16;0.00;0.00;0.62;0.00;0.00;0.62;1.93;0.80;;;22.60;28.40;;;;;;2256559;61;20358;-61
2023/11/05 06:36:01;0.00;0.00;0.62;0.00;0.00;0.62;2.03;1.10;;;22.60;28.40;;;;;;2256474;61;20797;-60
2023/11/05 06:38:46;0.00;0.00;0.62;0.00;0.00;0.62;1.50;0.83;;;22.60;28.40;;;;;;2255849;61;20934;-62
2023/11/05 06:41:30;0.00;0.00;0.62;0.00;0.00;0.62;1.60;0.80;;;22.60;28.40;;;;;;2256204;61;20930;-61
2023/11/05 06:44:15;0.00;0.00;0.62;0.00;0.00;0.62;1.60;0.80;;;22.60;28.40;;;;;;2256478;61;20884;-59
2023/11/05 06:47:00;0.00;0.00;0.62;0.00;0.00;0.62;1.40;0.70;;;22.60;28.40;;;;;;2256431;61;20377;-58
2023/11/05 06:49:46;0.00;0.00;0.62;0.00;0.00;0.62;1.43;0.70;;;22.60;28.40;;;;;;2258189;61;20365;-61
2023/11/05 06:52:31;0.00;0.00;0.62;0.00;0.00;0.62;1.90;1.00;;;22.60;28.40;;;;;;2256572;61;20772;-61
2023/11/05 06:55:17;0.00;0.00;0.62;0.00;0.00;0.62;1.50;0.70;;;22.60;28.40;;;;;;2256674;61;20381;-60
2023/11/05 06:58:02;0.00;0.00;0.62;0.00;0.00;0.62;1.37;0.80;;;22.60;28.40;;;;;;2256486;61;20903;-59
2023/11/05 07:00:47;0.00;0.00;0.62;0.00;0.00;0.62;1.53;0.90;;;22.60;28.40;;;;;;2259370;61;20977;-61
2023/11/05 07:03:31;0.00;0.00;0.62;0.00;0.00;0.62;1.40;0.90;;;22.60;28.40;;;;;;2256883;61;20381;-59
2023/11/05 07:06:17;0.00;0.00;0.62;0.00;0.00;0.62;1.43;0.77;;;22.60;28.40;;;;;;2257188;61;20381;-59
2023/11/05 07:09:03;0.00;0.00;0.62;0.00;0.00;0.62;3.43;0.80;;;22.60;28.40;;;;;;2256345;61;20409;-58
2023/11/05 07:11:48;0.00;0.00;0.62;0.00;0.00;0.62;1.50;0.70;;;22.60;28.40;;;;;;2256979;61;20405;-57
2023/11/05 07:14:33;0.00;0.00;0.62;0.00;0.00;0.62;1.50;0.70;;;22.60;28.40;;;;;;2257091;61;20382;-60
2023/11/05 07:17:17;0.00;0.00;0.62;0.00;0.00;0.62;1.90;0.90;;;22.60;28.40;;;;;;2256853;61;20370;-61
2023/11/05 07:20:03;0.00;0.00;0.62;0.00;0.00;0.62;1.37;0.70;;;22.60;28.40;;;;;;2256679;61;20370;-57
2023/11/05 07:22:49;0.00;0.00;0.62;0.00;0.00;0.62;1.77;0.93;;;22.60;28.40;;;;;;2256954;61;20396;-60
2023/11/05 07:25:35;0.00;0.00;0.62;0.00;0.00;0.62;1.70;0.80;;;22.60;28.40;;;;;;2256838;61;20425;-60
2023/11/05 07:28:19;0.00;0.00;0.62;0.00;0.00;0.62;1.60;0.80;;;22.60;28.40;;;;;;2256422;61;20409;-60
2023/11/05 07:31:04;0.00;0.00;0.62;0.00;0.00;0.62;1.30;0.70;;;22.60;28.40;;;;;;2256741;61;20369;-60
2023/11/05 07:33:49;0.00;0.00;0.62;0.00;0.00;0.62;1.80;0.80;;;22.60;28.90;;;;;;2256647;61;20385;-61
2023/11/05 07:36:36;0.00;0.00;0.62;0.00;0.00;0.62;1.40;0.80;;;22.60;28.40;;;;;;2256980;61;20396;-60
2023/11/05 07:39:21;0.00;0.00;0.62;0.00;0.00;0.62;1.40;0.80;;;22.60;28.40;;;;;;2256437;61;20871;-60
2023/11/05 07:42:08;0.00;0.00;0.62;0.00;0.00;0.62;3.63;1.00;;;22.50;28.30;;;;;;2256829;61;20393;-60
2023/11/05 07:44:52;0.00;0.00;0.62;0.00;0.00;0.62;1.53;0.70;;;22.60;28.40;;;;;;2256773;61;20382;-61
2023/11/05 07:47:39;0.00;0.00;0.62;0.00;0.00;0.62;1.60;0.80;;;22.60;28.40;;;;;;2256306;61;20448;-58
2023/11/05 07:50:25;0.00;0.00;0.62;0.00;0.00;0.62;1.30;0.70;;;22.60;28.40;;;;;;2256993;61;20445;-61
2023/11/05 07:53:10;0.00;0.00;0.62;0.00;0.00;0.62;1.67;0.70;;;22.60;28.40;;;;;;2257318;61;20377;-60
2023/11/05 07:55:56;0.00;0.00;0.62;0.00;0.00;0.62;1.50;0.80;;;22.60;28.40;;;;;;2256782;61;20886;-58
2023/11/05 07:58:41;0.00;0.00;0.62;0.00;0.00;0.62;1.60;0.77;;;22.60;28.40;;;;;;2256295;61;20382;-60
2023/11/05 08:01:25;0.00;0.00;0.62;0.00;0.00;0.62;1.40;0.80;;;22.60;28.40;;;;;;2256814;61;20433;-58
2023/11/05 08:04:10;0.00;0.00;0.62;0.00;0.00;0.62;1.80;0.73;;;22.60;28.40;;;;;;2256515;61;20400;-62
2023/11/05 08:06:55;0.00;0.00;0.62;0.00;0.00;0.62;2.83;0.80;;;22.60;28.40;;;;;;2256818;61;20447;-62
2023/11/05 08:09:40;0.00;0.00;0.62;0.00;0.00;0.62;1.60;0.83;;;22.60;28.40;;;;;;2256559;61;20370;-60
2023/11/05 08:12:27;0.00;0.00;0.62;0.00;0.00;0.62;1.53;0.90;;;22.60;28.40;;;;;;2256727;61;20777;-59
2023/11/05 08:15:13;0.00;0.00;0.62;0.00;0.00;0.62;1.30;0.70;;;22.60;28.40;;;;;;2256785;61;20520;-58
2023/11/05 08:17:58;0.00;0.00;0.62;0.00;0.00;0.62;1.30;0.70;;;22.60;28.40;;;;;;2256141;61;20362;-60
2023/11/05 08:20:43;0.00;0.00;0.62;0.00;0.00;0.62;1.53;0.80;;;22.60;28.40;;;;;;2256745;61;20382;-61
2023/11/05 08:23:28;0.00;0.00;0.62;0.00;0.00;0.62;1.53;0.90;;;22.60;28.40;;;;;;2256453;61;20424;-61
2023/11/05 08:26:12;0.00;0.00;0.62;0.00;0.00;0.62;1.30;0.70;;;22.60;28.40;;;;;;2256606;61;20366;-58
2023/11/05 08:29:02;0.00;0.00;0.62;0.00;0.00;0.62;1.57;0.80;;;22.60;28.40;;;;;;2256271;61;20408;-61
2023/11/05 08:31:46;0.00;0.00;0.62;0.00;0.00;0.62;1.53;0.80;;;22.60;28.40;;;;;;2256413;61;20447;-60
2023/11/05 08:34:31;0.00;0.00;0.62;0.00;0.00;0.62;1.70;0.80;;;22.60;28.40;;;;;;2259119;61;20389;-60
2023/11/05 08:37:15;0.00;0.00;0.62;0.00;0.00;0.62;1.97;0.80;;;22.60;28.50;;;;;;2256633;61;20898;-57
2023/11/05 08:40:00;0.00;0.00;0.62;0.00;0.00;0.62;1.63;0.93;;;22.60;28.50;;;;;;2256062;61;20887;-62
2023/11/05 08:42:45;0.00;0.00;0.62;0.00;0.00;0.62;2.60;1.00;;;22.60;28.50;;;;;;2257007;61;20362;-60
2023/11/05 08:45:31;0.00;0.00;0.62;0.00;0.00;0.62;1.40;0.70;;;22.60;28.50;;;;;;2255714;61;20601;-60
2023/11/05 08:48:16;0.00;0.00;0.62;0.00;0.00;0.62;1.50;0.80;;;22.60;28.50;;;;;;2256297;61;20914;-57
2023/11/05 08:51:00;0.00;0.00;0.62;0.00;0.00;0.62;2.10;0.80;;;22.60;28.50;;;;;;2256868;61;20447;-59
2023/11/05 08:53:45;0.00;0.00;0.62;0.00;0.00;0.62;1.50;0.80;;;22.60;28.50;;;;;;2256937;61;21012;-58
2023/11/05 08:56:29;0.00;0.00;0.62;0.00;0.00;0.62;2.43;0.80;;;22.60;28.50;;;;;;2256485;61;20412;-59
2023/11/05 08:59:14;0.00;0.00;0.62;0.00;0.00;0.62;1.83;0.97;;;22.60;28.50;;;;;;2255974;61;20946;-61
2023/11/05 09:02:00;0.00;0.00;0.62;0.00;0.00;0.62;1.30;0.77;;;22.60;28.50;;;;;;2256506;61;20480;-58
2023/11/05 09:04:44;0.00;0.00;0.62;0.00;0.00;0.62;2.27;1.00;;;22.60;28.50;;;;;;2256734;61;20394;-60
2023/11/05 09:07:29;0.00;0.00;0.62;0.00;0.00;0.62;1.60;1.00;;;22.60;28.50;;;;;;2256744;61;20410;-55
2023/11/05 09:10:15;0.00;0.00;0.62;0.00;0.00;0.62;1.37;0.70;;;22.60;28.50;;;;;;2256510;61;20560;-60
2023/11/05 09:13:00;0.00;0.00;0.62;0.00;0.00;0.62;1.53;0.90;;;22.60;28.50;;;;;;2256191;61;20361;-58
2023/11/05 09:15:44;0.00;0.00;0.62;0.00;0.00;0.62;1.60;0.90;;;22.60;28.60;;;;;;2256822;61;20973;-58
2023/11/05 09:18:30;0.00;0.00;0.62;0.00;0.00;0.62;2.37;0.90;;;22.60;28.60;;;;;;2256100;61;20903;-60
2023/11/05 09:21:15;0.00;0.00;0.62;0.00;0.00;0.62;1.67;0.90;;;22.60;28.60;;;;;;2256714;61;20382;-62
2023/11/05 09:24:00;0.00;0.00;0.62;0.00;0.00;0.62;1.67;0.90;;;22.60;28.60;;;;;;2256320;61;20448;-60
2023/11/05 09:26:45;0.00;0.00;0.62;0.00;0.00;0.62;1.77;1.00;;;22.60;28.60;;;;;;2256716;61;20362;-60
2023/11/05 09:29:29;0.00;0.00;0.62;0.00;0.00;0.62;1.40;0.80;;;22.60;28.60;;;;;;2256218;61;20381;-59
2023/11/05 09:32:14;0.00;0.00;0.62;0.00;0.00;0.62;1.90;1.10;;;22.60;28.60;;;;;;2256468;61;20390;-60
2023/11/05 09:35:00;0.00;0.00;0.62;0.00;0.00;0.62;1.87;1.20;;;22.60;28.70;;;;;;2256672;61;20528;-58
2023/11/05 09:37:45;0.00;0.00;0.62;0.00;0.00;0.62;1.40;0.80;;;22.60;28.70;;;;;;2256695;61;20374;-59
2023/11/05 09:40:33;0.00;0.00;0.62;0.00;0.00;0.62;1.77;1.10;;;22.60;28.70;;;;;;2256350;61;20462;-59
2023/11/05 09:43:18;0.00;0.00;0.62;0.00;0.00;0.62;1.60;0.90;;;22.60;28.70;;;;;;2256935;61;20555;-61
2023/11/05 09:46:04;0.00;0.00;0.62;0.00;0.00;0.62;2.50;1.37;;;22.60;28.70;;;;;;2256590;61;20416;-59
2023/11/05 09:48:49;0.00;0.00;0.62;0.00;0.00;0.62;1.70;0.90;;;22.60;28.70;;;;;;2256104;61;20454;-59
2023/11/05 09:51:36;0.00;0.00;0.62;0.00;0.00;0.62;2.00;1.10;;;22.60;28.70;;;;;;2256583;61;20883;-58
2023/11/05 09:54:21;0.00;0.00;0.62;0.00;0.00;0.62;1.67;0.93;;;22.60;28.70;;;;;;2256513;61;20931;-60
2023/11/05 09:57:07;0.00;0.00;0.62;0.00;0.00;0.62;1.40;0.90;;;22.60;28.70;;;;;;2256434;61;20369;-62
2023/11/05 09:59:51;0.00;0.00;0.62;0.00;0.00;0.62;1.83;1.10;;;22.60;28.80;;;;;;2256239;61;20942;-60
2023/11/05 10:02:56;0.00;0.00;0.62;0.00;0.00;0.62;1.90;0.97;;;22.60;29.30;;;;;;2256167;61;20938;-61
2023/11/05 10:05:43;0.00;0.00;0.62;0.00;0.00;0.62;1.70;1.00;;;22.60;28.80;;;;;;2256729;61;20452;-61
2023/11/05 10:08:33;0.00;0.00;0.62;0.00;0.00;0.62;1.80;1.20;;;22.60;28.80;;;;;;2255947;61;20366;-60
2023/11/05 10:11:19;0.00;0.00;0.62;0.00;0.00;0.62;1.80;1.30;;;22.60;28.80;;;;;;2256576;61;20378;-59
2023/11/05 10:14:04;0.00;0.00;0.62;0.00;0.00;0.62;1.97;1.20;;;22.60;28.80;;;;;;2256719;61;20432;-57
2023/11/05 10:16:48;0.00;0.00;0.62;0.00;0.00;0.62;1.70;1.10;;;22.60;28.80;;;;;;2256550;61;20882;-60
2023/11/05 10:19:36;0.00;0.00;0.62;0.00;0.00;0.62;2.37;1.10;;;22.60;28.80;;;;;;2255926;61;20358;-59
2023/11/05 10:22:21;0.00;0.00;0.62;0.00;0.00;0.62;1.70;1.00;;;22.60;28.80;;;;;;2256382;61;20743;-60
2023/11/05 10:25:08;0.00;0.00;0.62;0.00;0.00;0.62;1.70;1.00;;;22.60;28.80;;;;;;2256072;61;20475;-56
2023/11/05 10:27:53;0.00;0.00;0.62;0.00;0.00;0.62;1.87;1.10;;;22.60;28.80;;;;;;2255851;61;20400;-62
2023/11/05 10:30:38;0.00;0.00;0.62;0.00;0.00;0.62;1.80;1.00;;;22.60;28.80;;;;;;2255944;61;20362;-61
2023/11/05 10:33:22;0.00;0.00;0.62;0.00;0.00;0.62;1.70;1.00;;;22.60;29.30;;;;;;2258839;61;20370;-59
2023/11/05 10:36:08;0.00;0.00;0.62;0.00;0.00;0.62;1.80;1.10;;;22.60;28.80;;;;;;2256378;61;20496;-60
2023/11/05 10:38:53;0.00;0.00;0.62;0.00;0.00;0.62;1.87;1.10;;;22.60;28.80;;;;;;2255939;61;20446;-61
2023/11/05 10:41:40;0.00;0.00;0.62;0.00;0.00;0.62;2.03;1.23;;;22.60;28.80;;;;;;2256296;61;20466;-60
2023/11/05 10:44:27;0.00;0.00;0.62;0.00;0.00;0.62;2.10;1.20;;;22.60;28.80;;;;;;2256425;61;20520;-60
2023/11/05 10:47:12;0.00;0.00;0.62;0.00;0.00;0.62;2.10;1.17;;;22.60;28.80;;;;;;2256205;61;20362;-55
2023/11/05 10:49:58;0.00;0.00;0.62;0.00;0.00;0.62;1.70;1.07;;;22.60;28.80;;;;;;2256291;61;20361;-58
2023/11/05 10:52:45;0.00;0.00;0.62;0.00;0.00;0.62;1.83;1.07;;;22.60;28.80;;;;;;2255843;61;20450;-60